sensor_id;sensor_type;location;lat;lon;timestamp;P1;durP1;ratioP1;P2;durP2;ratioP2
1404;SDS011;697;51.114;6.542;2023-08-07T00:01:33;12.97;;;3.93;;
1404;SDS011;697;51.114;6.542;2023-08-07T00:04:00;7.63;;;3.73;;
1404;SDS011;697;51.114;6.542;2023-08-07T00:06:27;8.53;;;3.73;;
1404;SDS011;697;51.114;6.542;2023-08-07T00:08:53;19.73;;;4.00;;
1404;SDS011;697;51.114;6.542;2023-08-07T00:11:21;13.60;;;3.67;;
1404;SDS011;697;51.114;6.542;2023-08-07T00:13:48;10.00;;;3.10;;
1404;SDS011;697;51.114;6.542;2023-08-07T00:16:15;7.63;;;2.87;;
1404;SDS011;697;51.114;6.542;2023-08-07T00:18:42;10.93;;;3.53;;
1404;SDS011;697;51.114;6.542;2023-08-07T00:21:08;10.40;;;2.90;;
1404;SDS011;697;51.114;6.542;2023-08-07T00:23:35;13.53;;;2.97;;
1404;SDS011;697;51.114;6.542;2023-08-07T00:26:02;4.83;;;3.07;;
1404;SDS011;697;51.114;6.542;2023-08-07T00:28:30;9.50;;;4.10;;
1404;SDS011;697;51.114;6.542;2023-08-07T00:30:57;8.27;;;3.23;;
1404;SDS011;697;51.114;6.542;2023-08-07T00:33:23;6.27;;;3.30;;
1404;SDS011;697;51.114;6.542;2023-08-07T00:35:50;14.63;;;3.77;;
1404;SDS011;697;51.114;6.542;2023-08-07T00:38:17;14.67;;;3.30;;
1404;SDS011;697;51.114;6.542;2023-08-07T00:40:43;9.07;;;4.07;;
1404;SDS011;697;51.114;6.542;2023-08-07T00:43:10;7.83;;;4.00;;
1404;SDS011;697;51.114;6.542;2023-08-07T00:45:40;11.90;;;4.30;;
1404;SDS011;697;51.114;6.542;2023-08-07T00:48:09;9.00;;;3.43;;
1404;SDS011;697;51.114;6.542;2023-08-07T00:50:37;11.17;;;5.30;;
1404;SDS011;697;51.114;6.542;2023-08-07T00:53:04;10.17;;;4.17;;
1404;SDS011;697;51.114;6.542;2023-08-07T00:55:32;13.60;;;4.93;;
1404;SDS011;697;51.114;6.542;2023-08-07T00:57:59;9.83;;;4.10;;
1404;SDS011;697;51.114;6.542;2023-08-07T01:00:26;15.00;;;4.50;;
1404;SDS011;697;51.114;6.542;2023-08-07T01:02:56;18.60;;;4.80;;
1404;SDS011;697;51.114;6.542;2023-08-07T01:05:23;10.10;;;4.30;;
1404;SDS011;697;51.114;6.542;2023-08-07T01:07:51;11.03;;;4.13;;
1404;SDS011;697;51.114;6.542;2023-08-07T01:10:21;10.87;;;4.20;;
1404;SDS011;697;51.114;6.542;2023-08-07T01:12:58;15.17;;;5.13;;
1404;SDS011;697;51.114;6.542;2023-08-07T01:15:30;14.10;;;3.97;;
1404;SDS011;697;51.114;6.542;2023-08-07T01:18:00;8.73;;;3.90;;
1404;SDS011;697;51.114;6.542;2023-08-07T01:20:29;8.77;;;3.43;;
1404;SDS011;697;51.114;6.542;2023-08-07T01:22:57;14.23;;;4.30;;
1404;SDS011;697;51.114;6.542;2023-08-07T01:25:24;11.40;;;4.20;;
1404;SDS011;697;51.114;6.542;2023-08-07T01:27:53;9.47;;;3.90;;
1404;SDS011;697;51.114;6.542;2023-08-07T01:30:26;10.90;;;4.60;;
1404;SDS011;697;51.114;6.542;2023-08-07T01:32:59;14.67;;;3.63;;
1404;SDS011;697;51.114;6.542;2023-08-07T01:35:33;13.70;;;3.50;;
1404;SDS011;697;51.114;6.542;2023-08-07T01:38:03;15.13;;;4.53;;
1404;SDS011;697;51.114;6.542;2023-08-07T01:40:31;15.33;;;4.17;;
1404;SDS011;697;51.114;6.542;2023-08-07T01:42:58;10.03;;;3.90;;
1404;SDS011;697;51.114;6.542;2023-08-07T01:45:25;13.97;;;3.80;;
1404;SDS011;697;51.114;6.542;2023-08-07T01:47:53;7.80;;;3.90;;
1404;SDS011;697;51.114;6.542;2023-08-07T01:50:20;11.37;;;3.57;;
1404;SDS011;697;51.114;6.542;2023-08-07T01:52:47;8.53;;;3.77;;
1404;SDS011;697;51.114;6.542;2023-08-07T01:55:15;10.37;;;3.37;;
1404;SDS011;697;51.114;6.542;2023-08-07T01:57:43;15.30;;;3.80;;
1404;SDS011;697;51.114;6.542;2023-08-07T02:00:10;12.63;;;5.73;;
1404;SDS011;697;51.114;6.542;2023-08-07T02:02:38;7.53;;;3.60;;
1404;SDS011;697;51.114;6.542;2023-08-07T02:05:05;16.70;;;4.03;;
1404;SDS011;697;51.114;6.542;2023-08-07T02:07:32;6.80;;;3.80;;
1404;SDS011;697;51.114;6.542;2023-08-07T02:09:58;12.10;;;4.20;;
1404;SDS011;697;51.114;6.542;2023-08-07T02:12:26;8.73;;;3.00;;
1404;SDS011;697;51.114;6.542;2023-08-07T02:14:54;7.70;;;4.23;;
1404;SDS011;697;51.114;6.542;2023-08-07T02:17:21;11.60;;;3.93;;
1404;SDS011;697;51.114;6.542;2023-08-07T02:19:48;8.87;;;3.47;;
1404;SDS011;697;51.114;6.542;2023-08-07T02:22:14;8.63;;;3.67;;
1404;SDS011;697;51.114;6.542;2023-08-07T02:24:41;9.07;;;3.10;;
1404;SDS011;697;51.114;6.542;2023-08-07T02:27:08;10.80;;;4.50;;
1404;SDS011;697;51.114;6.542;2023-08-07T02:29:36;11.77;;;4.50;;
1404;SDS011;697;51.114;6.542;2023-08-07T02:32:03;12.57;;;3.70;;
1404;SDS011;697;51.114;6.542;2023-08-07T02:34:30;12.73;;;3.97;;
1404;SDS011;697;51.114;6.542;2023-08-07T02:36:57;12.13;;;4.47;;
1404;SDS011;697;51.114;6.542;2023-08-07T02:39:24;15.40;;;4.33;;
1404;SDS011;697;51.114;6.542;2023-08-07T02:41:51;7.47;;;3.27;;
1404;SDS011;697;51.114;6.542;2023-08-07T02:44:18;16.23;;;4.80;;
1404;SDS011;697;51.114;6.542;2023-08-07T02:46:46;14.10;;;4.40;;
1404;SDS011;697;51.114;6.542;2023-08-07T02:49:13;10.90;;;3.50;;
1404;SDS011;697;51.114;6.542;2023-08-07T02:51:39;18.40;;;3.40;;
1404;SDS011;697;51.114;6.542;2023-08-07T02:54:06;11.03;;;3.43;;
1404;SDS011;697;51.114;6.542;2023-08-07T02:56:33;7.10;;;3.40;;
1404;SDS011;697;51.114;6.542;2023-08-07T02:59:00;11.60;;;3.30;;
1404;SDS011;697;51.114;6.542;2023-08-07T03:01:26;14.80;;;4.13;;
1404;SDS011;697;51.114;6.542;2023-08-07T03:03:54;13.80;;;3.80;;
1404;SDS011;697;51.114;6.542;2023-08-07T03:06:21;9.33;;;4.37;;
1404;SDS011;697;51.114;6.542;2023-08-07T03:08:49;9.33;;;3.67;;
1404;SDS011;697;51.114;6.542;2023-08-07T03:11:16;11.17;;;4.13;;
1404;SDS011;697;51.114;6.542;2023-08-07T03:13:42;6.93;;;3.37;;
1404;SDS011;697;51.114;6.542;2023-08-07T03:16:10;11.27;;;3.60;;
1404;SDS011;697;51.114;6.542;2023-08-07T03:18:36;14.20;;;5.73;;
1404;SDS011;697;51.114;6.542;2023-08-07T03:21:04;12.90;;;4.20;;
1404;SDS011;697;51.114;6.542;2023-08-07T03:23:31;9.13;;;3.60;;
1404;SDS011;697;51.114;6.542;2023-08-07T03:26:01;13.00;;;4.10;;
1404;SDS011;697;51.114;6.542;2023-08-07T03:28:28;11.70;;;5.10;;
1404;SDS011;697;51.114;6.542;2023-08-07T03:30:55;11.53;;;4.13;;
1404;SDS011;697;51.114;6.542;2023-08-07T03:33:22;10.80;;;3.90;;
1404;SDS011;697;51.114;6.542;2023-08-07T03:35:48;14.50;;;3.60;;
1404;SDS011;697;51.114;6.542;2023-08-07T03:38:16;9.80;;;3.80;;
1404;SDS011;697;51.114;6.542;2023-08-07T03:40:43;10.00;;;3.23;;
1404;SDS011;697;51.114;6.542;2023-08-07T03:43:10;7.60;;;4.03;;
1404;SDS011;697;51.114;6.542;2023-08-07T03:45:37;9.60;;;3.30;;
1404;SDS011;697;51.114;6.542;2023-08-07T03:48:05;9.10;;;3.13;;
1404;SDS011;697;51.114;6.542;2023-08-07T03:50:31;7.27;;;3.60;;
1404;SDS011;697;51.114;6.542;2023-08-07T03:52:59;8.23;;;2.97;;
1404;SDS011;697;51.114;6.542;2023-08-07T03:55:28;11.00;;;3.70;;
1404;SDS011;697;51.114;6.542;2023-08-07T03:57:54;9.93;;;3.33;;
1404;SDS011;697;51.114;6.542;2023-08-07T04:00:21;7.80;;;3.30;;
1404;SDS011;697;51.114;6.542;2023-08-07T04:02:48;10.30;;;3.90;;
1404;SDS011;697;51.114;6.542;2023-08-07T04:05:15;15.03;;;3.57;;
1404;SDS011;697;51.114;6.542;2023-08-07T04:07:42;13.90;;;3.37;;
1404;SDS011;697;51.114;6.542;2023-08-07T04:10:09;4.60;;;3.40;;
1404;SDS011;697;51.114;6.542;2023-08-07T04:12:37;11.50;;;3.57;;
1404;SDS011;697;51.114;6.542;2023-08-07T04:15:04;12.60;;;3.93;;
1404;SDS011;697;51.114;6.542;2023-08-07T04:17:33;14.40;;;4.50;;
1404;SDS011;697;51.114;6.542;2023-08-07T04:20:00;11.90;;;4.80;;
1404;SDS011;697;51.114;6.542;2023-08-07T04:22:28;11.50;;;4.83;;
1404;SDS011;697;51.114;6.542;2023-08-07T04:24:55;7.73;;;4.33;;
1404;SDS011;697;51.114;6.542;2023-08-07T04:27:21;9.77;;;4.77;;
1404;SDS011;697;51.114;6.542;2023-08-07T04:29:49;16.70;;;5.00;;
1404;SDS011;697;51.114;6.542;2023-08-07T04:32:16;11.20;;;4.80;;
1404;SDS011;697;51.114;6.542;2023-08-07T04:34:43;8.63;;;4.90;;
1404;SDS011;697;51.114;6.542;2023-08-07T04:37:10;10.07;;;4.30;;
1404;SDS011;697;51.114;6.542;2023-08-07T04:39:37;7.60;;;3.60;;
1404;SDS011;697;51.114;6.542;2023-08-07T04:42:04;9.70;;;4.50;;
1404;SDS011;697;51.114;6.542;2023-08-07T04:44:31;11.57;;;4.00;;
1404;SDS011;697;51.114;6.542;2023-08-07T04:46:59;14.37;;;4.77;;
1404;SDS011;697;51.114;6.542;2023-08-07T04:49:26;11.83;;;4.60;;
1404;SDS011;697;51.114;6.542;2023-08-07T04:51:53;9.77;;;4.53;;
1404;SDS011;697;51.114;6.542;2023-08-07T04:54:19;11.03;;;3.83;;
1404;SDS011;697;51.114;6.542;2023-08-07T04:56:46;12.33;;;3.50;;
1404;SDS011;697;51.114;6.542;2023-08-07T04:59:13;9.70;;;3.60;;
1404;SDS011;697;51.114;6.542;2023-08-07T05:01:40;8.80;;;3.90;;
1404;SDS011;697;51.114;6.542;2023-08-07T05:04:08;10.47;;;4.07;;
1404;SDS011;697;51.114;6.542;2023-08-07T05:06:35;11.27;;;4.37;;
1404;SDS011;697;51.114;6.542;2023-08-07T05:09:02;12.83;;;4.77;;
1404;SDS011;697;51.114;6.542;2023-08-07T05:11:28;10.20;;;4.00;;
1404;SDS011;697;51.114;6.542;2023-08-07T05:13:55;9.13;;;4.37;;
1404;SDS011;697;51.114;6.542;2023-08-07T05:16:22;5.93;;;3.83;;
1404;SDS011;697;51.114;6.542;2023-08-07T05:18:48;8.90;;;3.40;;
1404;SDS011;697;51.114;6.542;2023-08-07T05:21:16;13.57;;;4.40;;
1404;SDS011;697;51.114;6.542;2023-08-07T05:23:43;7.83;;;4.30;;
1404;SDS011;697;51.114;6.542;2023-08-07T05:26:10;5.70;;;3.90;;
1404;SDS011;697;51.114;6.542;2023-08-07T05:28:37;10.43;;;3.60;;
1404;SDS011;697;51.114;6.542;2023-08-07T05:31:03;8.10;;;3.67;;
1404;SDS011;697;51.114;6.542;2023-08-07T05:33:30;11.30;;;3.73;;
1404;SDS011;697;51.114;6.542;2023-08-07T05:35:57;8.70;;;3.77;;
1404;SDS011;697;51.114;6.542;2023-08-07T05:38:25;9.50;;;3.20;;
1404;SDS011;697;51.114;6.542;2023-08-07T05:40:51;9.70;;;3.40;;
1404;SDS011;697;51.114;6.542;2023-08-07T05:43:18;7.43;;;3.73;;
1404;SDS011;697;51.114;6.542;2023-08-07T05:45:45;14.03;;;4.00;;
1404;SDS011;697;51.114;6.542;2023-08-07T05:48:11;10.30;;;3.80;;
1404;SDS011;697;51.114;6.542;2023-08-07T05:50:38;13.73;;;3.80;;
1404;SDS011;697;51.114;6.542;2023-08-07T05:53:05;7.73;;;3.57;;
1404;SDS011;697;51.114;6.542;2023-08-07T05:55:33;5.77;;;3.77;;
1404;SDS011;697;51.114;6.542;2023-08-07T05:57:59;10.20;;;4.10;;
1404;SDS011;697;51.114;6.542;2023-08-07T06:00:26;13.10;;;3.93;;
1404;SDS011;697;51.114;6.542;2023-08-07T06:02:53;15.10;;;3.43;;
1404;SDS011;697;51.114;6.542;2023-08-07T06:05:20;9.97;;;3.60;;
1404;SDS011;697;51.114;6.542;2023-08-07T06:07:46;8.33;;;3.60;;
1404;SDS011;697;51.114;6.542;2023-08-07T06:10:13;12.33;;;3.60;;
1404;SDS011;697;51.114;6.542;2023-08-07T06:12:41;7.10;;;3.40;;
1404;SDS011;697;51.114;6.542;2023-08-07T06:15:08;8.57;;;3.50;;
1404;SDS011;697;51.114;6.542;2023-08-07T06:17:36;8.07;;;3.60;;
1404;SDS011;697;51.114;6.542;2023-08-07T06:20:04;9.73;;;3.53;;
1404;SDS011;697;51.114;6.542;2023-08-07T06:22:34;14.20;;;4.03;;
1404;SDS011;697;51.114;6.542;2023-08-07T06:25:00;6.77;;;3.67;;
1404;SDS011;697;51.114;6.542;2023-08-07T06:27:27;7.33;;;4.50;;
1404;SDS011;697;51.114;6.542;2023-08-07T06:29:56;8.77;;;2.80;;
1404;SDS011;697;51.114;6.542;2023-08-07T06:32:24;8.50;;;3.57;;
1404;SDS011;697;51.114;6.542;2023-08-07T06:34:51;9.30;;;3.53;;
1404;SDS011;697;51.114;6.542;2023-08-07T06:37:18;10.87;;;3.40;;
1404;SDS011;697;51.114;6.542;2023-08-07T06:39:45;8.87;;;3.87;;
1404;SDS011;697;51.114;6.542;2023-08-07T06:42:12;13.60;;;4.33;;
1404;SDS011;697;51.114;6.542;2023-08-07T06:44:38;10.07;;;4.07;;
1404;SDS011;697;51.114;6.542;2023-08-07T06:47:07;9.53;;;3.37;;
1404;SDS011;697;51.114;6.542;2023-08-07T06:49:34;9.73;;;4.53;;
1404;SDS011;697;51.114;6.542;2023-08-07T06:52:01;7.50;;;3.80;;
1404;SDS011;697;51.114;6.542;2023-08-07T06:54:28;9.67;;;4.17;;
1404;SDS011;697;51.114;6.542;2023-08-07T06:56:54;9.50;;;3.50;;
1404;SDS011;697;51.114;6.542;2023-08-07T06:59:21;5.90;;;3.27;;
1404;SDS011;697;51.114;6.542;2023-08-07T07:01:48;11.10;;;5.10;;
1404;SDS011;697;51.114;6.542;2023-08-07T07:04:17;8.83;;;4.20;;
1404;SDS011;697;51.114;6.542;2023-08-07T07:06:44;7.57;;;3.40;;
1404;SDS011;697;51.114;6.542;2023-08-07T07:09:10;8.17;;;3.70;;
1404;SDS011;697;51.114;6.542;2023-08-07T07:11:41;8.53;;;3.70;;
1404;SDS011;697;51.114;6.542;2023-08-07T07:14:08;6.63;;;3.60;;
1404;SDS011;697;51.114;6.542;2023-08-07T07:16:35;9.67;;;4.10;;
1404;SDS011;697;51.114;6.542;2023-08-07T07:19:03;11.90;;;4.10;;
1404;SDS011;697;51.114;6.542;2023-08-07T07:21:32;12.23;;;4.07;;
1404;SDS011;697;51.114;6.542;2023-08-07T07:23:59;10.23;;;3.97;;
1404;SDS011;697;51.114;6.542;2023-08-07T07:26:26;6.33;;;3.27;;
1404;SDS011;697;51.114;6.542;2023-08-07T07:28:53;12.00;;;4.07;;
1404;SDS011;697;51.114;6.542;2023-08-07T07:31:20;11.87;;;3.87;;
1404;SDS011;697;51.114;6.542;2023-08-07T07:33:47;10.20;;;3.43;;
1404;SDS011;697;51.114;6.542;2023-08-07T07:36:15;12.40;;;3.90;;
1404;SDS011;697;51.114;6.542;2023-08-07T07:38:43;6.83;;;3.83;;
1404;SDS011;697;51.114;6.542;2023-08-07T07:41:12;7.47;;;3.60;;
1404;SDS011;697;51.114;6.542;2023-08-07T07:43:38;5.93;;;3.23;;
1404;SDS011;697;51.114;6.542;2023-08-07T07:46:05;14.37;;;4.17;;
1404;SDS011;697;51.114;6.542;2023-08-07T07:48:32;11.27;;;3.97;;
1404;SDS011;697;51.114;6.542;2023-08-07T07:50:59;10.93;;;3.33;;
1404;SDS011;697;51.114;6.542;2023-08-07T07:53:26;6.03;;;3.20;;
1404;SDS011;697;51.114;6.542;2023-08-07T07:55:54;8.90;;;3.33;;
1404;SDS011;697;51.114;6.542;2023-08-07T07:58:21;10.03;;;2.93;;
1404;SDS011;697;51.114;6.542;2023-08-07T08:00:48;6.93;;;3.00;;
1404;SDS011;697;51.114;6.542;2023-08-07T08:03:17;8.80;;;3.40;;
1404;SDS011;697;51.114;6.542;2023-08-07T08:05:44;9.20;;;3.13;;
1404;SDS011;697;51.114;6.542;2023-08-07T08:08:11;6.53;;;3.17;;
1404;SDS011;697;51.114;6.542;2023-08-07T08:10:37;6.87;;;3.20;;
1404;SDS011;697;51.114;6.542;2023-08-07T08:13:05;7.73;;;3.37;;
1404;SDS011;697;51.114;6.542;2023-08-07T08:15:34;13.70;;;3.47;;
1404;SDS011;697;51.114;6.542;2023-08-07T08:18:01;8.03;;;3.40;;
1404;SDS011;697;51.114;6.542;2023-08-07T08:20:28;11.20;;;3.20;;
1404;SDS011;697;51.114;6.542;2023-08-07T08:22:56;9.63;;;3.50;;
1404;SDS011;697;51.114;6.542;2023-08-07T08:25:22;12.53;;;3.43;;
1404;SDS011;697;51.114;6.542;2023-08-07T08:27:49;5.37;;;2.53;;
1404;SDS011;697;51.114;6.542;2023-08-07T08:30:17;9.17;;;2.60;;
1404;SDS011;697;51.114;6.542;2023-08-07T08:32:44;11.33;;;3.40;;
1404;SDS011;697;51.114;6.542;2023-08-07T08:35:11;11.33;;;3.10;;
1404;SDS011;697;51.114;6.542;2023-08-07T08:37:38;13.10;;;3.70;;
1404;SDS011;697;51.114;6.542;2023-08-07T08:40:05;8.40;;;3.10;;
1404;SDS011;697;51.114;6.542;2023-08-07T08:42:34;5.43;;;2.47;;
1404;SDS011;697;51.114;6.542;2023-08-07T08:45:02;4.90;;;2.80;;
1404;SDS011;697;51.114;6.542;2023-08-07T08:47:32;5.67;;;2.40;;
1404;SDS011;697;51.114;6.542;2023-08-07T08:50:02;3.60;;;2.47;;
1404;SDS011;697;51.114;6.542;2023-08-07T08:52:32;6.27;;;2.70;;
1404;SDS011;697;51.114;6.542;2023-08-07T08:54:59;7.50;;;2.53;;
1404;SDS011;697;51.114;6.542;2023-08-07T08:57:27;8.93;;;2.57;;
1404;SDS011;697;51.114;6.542;2023-08-07T08:59:54;6.20;;;2.43;;
1404;SDS011;697;51.114;6.542;2023-08-07T09:02:22;7.00;;;2.10;;
1404;SDS011;697;51.114;6.542;2023-08-07T09:04:50;8.87;;;3.17;;
1404;SDS011;697;51.114;6.542;2023-08-07T09:07:17;5.03;;;2.40;;
1404;SDS011;697;51.114;6.542;2023-08-07T09:09:46;4.00;;;2.10;;
1404;SDS011;697;51.114;6.542;2023-08-07T09:12:16;6.63;;;1.63;;
1404;SDS011;697;51.114;6.542;2023-08-07T09:14:47;6.93;;;1.87;;
1404;SDS011;697;51.114;6.542;2023-08-07T09:17:19;5.27;;;2.50;;
1404;SDS011;697;51.114;6.542;2023-08-07T09:19:48;7.37;;;1.97;;
1404;SDS011;697;51.114;6.542;2023-08-07T09:22:16;7.90;;;1.90;;
1404;SDS011;697;51.114;6.542;2023-08-07T09:24:43;7.30;;;2.40;;
1404;SDS011;697;51.114;6.542;2023-08-07T09:27:09;5.80;;;2.17;;
1404;SDS011;697;51.114;6.542;2023-08-07T09:29:37;5.13;;;2.20;;
1404;SDS011;697;51.114;6.542;2023-08-07T09:32:06;7.13;;;2.20;;
1404;SDS011;697;51.114;6.542;2023-08-07T09:34:34;4.17;;;1.47;;
1404;SDS011;697;51.114;6.542;2023-08-07T09:37:01;4.87;;;2.03;;
1404;SDS011;697;51.114;6.542;2023-08-07T09:39:31;5.97;;;1.60;;
1404;SDS011;697;51.114;6.542;2023-08-07T09:41:57;9.60;;;2.53;;
1404;SDS011;697;51.114;6.542;2023-08-07T09:44:24;5.40;;;2.27;;
1404;SDS011;697;51.114;6.542;2023-08-07T09:46:51;8.53;;;2.80;;
1404;SDS011;697;51.114;6.542;2023-08-07T09:49:18;6.60;;;2.00;;
1404;SDS011;697;51.114;6.542;2023-08-07T09:51:45;8.17;;;2.30;;
1404;SDS011;697;51.114;6.542;2023-08-07T09:54:15;4.17;;;1.50;;
1404;SDS011;697;51.114;6.542;2023-08-07T09:56:43;8.60;;;2.53;;
1404;SDS011;697;51.114;6.542;2023-08-07T09:59:12;5.47;;;1.77;;
1404;SDS011;697;51.114;6.542;2023-08-07T10:01:39;7.90;;;2.40;;
1404;SDS011;697;51.114;6.542;2023-08-07T10:04:09;5.03;;;2.10;;
1404;SDS011;697;51.114;6.542;2023-08-07T10:06:40;7.03;;;2.20;;
1404;SDS011;697;51.114;6.542;2023-08-07T10:09:07;6.17;;;2.60;;
1404;SDS011;697;51.114;6.542;2023-08-07T10:11:34;5.77;;;1.90;;
1404;SDS011;697;51.114;6.542;2023-08-07T10:14:02;5.53;;;2.57;;
1404;SDS011;697;51.114;6.542;2023-08-07T10:16:29;7.00;;;2.07;;
1404;SDS011;697;51.114;6.542;2023-08-07T10:18:56;5.17;;;1.77;;
1404;SDS011;697;51.114;6.542;2023-08-07T10:21:23;6.90;;;1.67;;
1404;SDS011;697;51.114;6.542;2023-08-07T10:23:50;5.47;;;1.57;;
1404;SDS011;697;51.114;6.542;2023-08-07T10:26:19;3.40;;;1.80;;
1404;SDS011;697;51.114;6.542;2023-08-07T10:28:48;5.50;;;1.80;;
1404;SDS011;697;51.114;6.542;2023-08-07T10:31:19;4.93;;;1.67;;
1404;SDS011;697;51.114;6.542;2023-08-07T10:33:48;5.40;;;1.80;;
1404;SDS011;697;51.114;6.542;2023-08-07T10:36:15;6.10;;;1.57;;
1404;SDS011;697;51.114;6.542;2023-08-07T10:38:42;4.30;;;1.53;;
1404;SDS011;697;51.114;6.542;2023-08-07T10:41:09;4.70;;;2.27;;
1404;SDS011;697;51.114;6.542;2023-08-07T10:43:39;5.10;;;2.80;;
1404;SDS011;697;51.114;6.542;2023-08-07T10:46:06;4.33;;;1.40;;
1404;SDS011;697;51.114;6.542;2023-08-07T10:48:41;5.50;;;1.63;;
1404;SDS011;697;51.114;6.542;2023-08-07T10:51:09;5.07;;;1.80;;
1404;SDS011;697;51.114;6.542;2023-08-07T10:53:39;6.53;;;1.90;;
1404;SDS011;697;51.114;6.542;2023-08-07T10:56:09;5.83;;;2.00;;
1404;SDS011;697;51.114;6.542;2023-08-07T10:58:38;3.90;;;1.63;;
1404;SDS011;697;51.114;6.542;2023-08-07T11:01:17;2.97;;;1.60;;
1404;SDS011;697;51.114;6.542;2023-08-07T11:03:46;5.17;;;1.73;;
1404;SDS011;697;51.114;6.542;2023-08-07T11:06:15;3.20;;;1.80;;
1404;SDS011;697;51.114;6.542;2023-08-07T11:08:42;2.90;;;1.60;;
1404;SDS011;697;51.114;6.542;2023-08-07T11:11:09;8.90;;;1.60;;
1404;SDS011;697;51.114;6.542;2023-08-07T11:13:36;3.67;;;1.30;;
1404;SDS011;697;51.114;6.542;2023-08-07T11:16:02;2.83;;;1.50;;
1404;SDS011;697;51.114;6.542;2023-08-07T11:18:30;3.77;;;1.47;;
1404;SDS011;697;51.114;6.542;2023-08-07T11:20:58;5.27;;;1.80;;
1404;SDS011;697;51.114;6.542;2023-08-07T11:23:26;4.70;;;2.03;;
1404;SDS011;697;51.114;6.542;2023-08-07T11:25:54;4.67;;;1.93;;
1404;SDS011;697;51.114;6.542;2023-08-07T11:28:21;3.27;;;1.90;;
1404;SDS011;697;51.114;6.542;2023-08-07T11:30:49;3.03;;;1.70;;
1404;SDS011;697;51.114;6.542;2023-08-07T11:33:17;3.97;;;1.87;;
1404;SDS011;697;51.114;6.542;2023-08-07T11:35:44;9.33;;;2.67;;
1404;SDS011;697;51.114;6.542;2023-08-07T11:38:15;2.90;;;1.80;;
1404;SDS011;697;51.114;6.542;2023-08-07T11:40:56;2.57;;;1.70;;
1404;SDS011;697;51.114;6.542;2023-08-07T11:43:23;3.83;;;2.20;;
1404;SDS011;697;51.114;6.542;2023-08-07T11:45:50;3.00;;;2.03;;
1404;SDS011;697;51.114;6.542;2023-08-07T11:48:17;5.50;;;2.40;;
1404;SDS011;697;51.114;6.542;2023-08-07T11:50:44;4.07;;;1.97;;
1404;SDS011;697;51.114;6.542;2023-08-07T11:53:12;2.93;;;1.63;;
1404;SDS011;697;51.114;6.542;2023-08-07T11:55:45;5.07;;;1.70;;
1404;SDS011;697;51.114;6.542;2023-08-07T11:58:13;2.50;;;1.87;;
1404;SDS011;697;51.114;6.542;2023-08-07T12:00:41;1.70;;;1.20;;
1404;SDS011;697;51.114;6.542;2023-08-07T12:03:23;3.90;;;2.10;;
1404;SDS011;697;51.114;6.542;2023-08-07T12:05:54;3.23;;;1.57;;
1404;SDS011;697;51.114;6.542;2023-08-07T12:08:24;4.30;;;1.70;;
1404;SDS011;697;51.114;6.542;2023-08-07T12:10:50;3.27;;;1.73;;
1404;SDS011;697;51.114;6.542;2023-08-07T12:13:24;4.20;;;1.87;;
1404;SDS011;697;51.114;6.542;2023-08-07T12:15:53;3.90;;;1.60;;
1404;SDS011;697;51.114;6.542;2023-08-07T12:18:20;1.63;;;1.53;;
1404;SDS011;697;51.114;6.542;2023-08-07T12:20:48;7.23;;;2.17;;
1404;SDS011;697;51.114;6.542;2023-08-07T12:23:15;3.23;;;1.80;;
1404;SDS011;697;51.114;6.542;2023-08-07T12:25:44;2.60;;;1.70;;
1404;SDS011;697;51.114;6.542;2023-08-07T12:28:11;4.07;;;2.10;;
1404;SDS011;697;51.114;6.542;2023-08-07T12:30:38;4.60;;;1.80;;
1404;SDS011;697;51.114;6.542;2023-08-07T12:33:05;3.30;;;1.67;;
1404;SDS011;697;51.114;6.542;2023-08-07T12:35:32;2.77;;;1.37;;
1404;SDS011;697;51.114;6.542;2023-08-07T12:38:00;2.73;;;1.50;;
1404;SDS011;697;51.114;6.542;2023-08-07T12:40:27;3.60;;;1.60;;
1404;SDS011;697;51.114;6.542;2023-08-07T12:42:56;2.53;;;1.63;;
1404;SDS011;697;51.114;6.542;2023-08-07T12:45:24;4.77;;;1.80;;
1404;SDS011;697;51.114;6.542;2023-08-07T12:47:51;4.23;;;1.90;;
1404;SDS011;697;51.114;6.542;2023-08-07T12:50:18;4.03;;;1.60;;
1404;SDS011;697;51.114;6.542;2023-08-07T12:52:44;5.03;;;1.70;;
1404;SDS011;697;51.114;6.542;2023-08-07T12:55:11;2.73;;;1.70;;
1404;SDS011;697;51.114;6.542;2023-08-07T12:57:39;4.50;;;2.17;;
1404;SDS011;697;51.114;6.542;2023-08-07T13:00:09;2.40;;;1.70;;
1404;SDS011;697;51.114;6.542;2023-08-07T13:02:39;3.67;;;1.70;;
1404;SDS011;697;51.114;6.542;2023-08-07T13:05:07;3.77;;;2.10;;
1404;SDS011;697;51.114;6.542;2023-08-07T13:07:34;2.40;;;1.50;;
1404;SDS011;697;51.114;6.542;2023-08-07T13:10:01;2.30;;;1.47;;
1404;SDS011;697;51.114;6.542;2023-08-07T13:12:27;3.53;;;1.50;;
1404;SDS011;697;51.114;6.542;2023-08-07T13:14:54;5.60;;;1.90;;
1404;SDS011;697;51.114;6.542;2023-08-07T13:17:22;5.93;;;1.97;;
1404;SDS011;697;51.114;6.542;2023-08-07T13:19:49;4.67;;;1.80;;
1404;SDS011;697;51.114;6.542;2023-08-07T13:22:15;8.23;;;1.90;;
1404;SDS011;697;51.114;6.542;2023-08-07T13:24:42;5.10;;;1.77;;
1404;SDS011;697;51.114;6.542;2023-08-07T13:27:09;5.03;;;2.00;;
1404;SDS011;697;51.114;6.542;2023-08-07T13:29:35;4.30;;;2.33;;
1404;SDS011;697;51.114;6.542;2023-08-07T13:32:02;1.70;;;1.60;;
1404;SDS011;697;51.114;6.542;2023-08-07T13:34:35;3.60;;;1.73;;
1404;SDS011;697;51.114;6.542;2023-08-07T13:37:02;5.20;;;1.77;;
1404;SDS011;697;51.114;6.542;2023-08-07T13:39:30;3.10;;;2.13;;
1404;SDS011;697;51.114;6.542;2023-08-07T13:41:56;3.77;;;2.00;;
1404;SDS011;697;51.114;6.542;2023-08-07T13:44:24;3.93;;;1.60;;
1404;SDS011;697;51.114;6.542;2023-08-07T13:46:51;5.03;;;2.40;;
1404;SDS011;697;51.114;6.542;2023-08-07T13:49:18;6.10;;;2.10;;
1404;SDS011;697;51.114;6.542;2023-08-07T13:51:46;5.20;;;2.30;;
1404;SDS011;697;51.114;6.542;2023-08-07T13:54:13;8.20;;;2.40;;
1404;SDS011;697;51.114;6.542;2023-08-07T13:56:40;3.20;;;1.93;;
1404;SDS011;697;51.114;6.542;2023-08-07T13:59:07;4.87;;;2.40;;
1404;SDS011;697;51.114;6.542;2023-08-07T14:01:34;3.43;;;1.80;;
1404;SDS011;697;51.114;6.542;2023-08-07T14:04:01;4.87;;;2.23;;
1404;SDS011;697;51.114;6.542;2023-08-07T14:06:28;5.57;;;2.30;;
1404;SDS011;697;51.114;6.542;2023-08-07T14:08:56;3.07;;;1.83;;
1404;SDS011;697;51.114;6.542;2023-08-07T14:11:23;4.00;;;2.00;;
1404;SDS011;697;51.114;6.542;2023-08-07T14:13:55;2.07;;;1.87;;
1404;SDS011;697;51.114;6.542;2023-08-07T14:16:22;5.30;;;1.80;;
1404;SDS011;697;51.114;6.542;2023-08-07T14:18:49;2.10;;;1.80;;
1404;SDS011;697;51.114;6.542;2023-08-07T14:21:15;3.93;;;1.70;;
1404;SDS011;697;51.114;6.542;2023-08-07T14:23:42;2.27;;;1.93;;
1404;SDS011;697;51.114;6.542;2023-08-07T14:26:11;7.03;;;2.67;;
1404;SDS011;697;51.114;6.542;2023-08-07T14:28:38;2.23;;;1.80;;
1404;SDS011;697;51.114;6.542;2023-08-07T14:31:06;5.07;;;1.93;;
1404;SDS011;697;51.114;6.542;2023-08-07T14:33:33;4.43;;;2.37;;
1404;SDS011;697;51.114;6.542;2023-08-07T14:36:00;2.93;;;2.10;;
1404;SDS011;697;51.114;6.542;2023-08-07T14:38:26;3.80;;;1.97;;
1404;SDS011;697;51.114;6.542;2023-08-07T14:40:53;2.50;;;1.93;;
1404;SDS011;697;51.114;6.542;2023-08-07T14:43:21;5.20;;;2.23;;
1404;SDS011;697;51.114;6.542;2023-08-07T14:45:48;3.80;;;2.30;;
1404;SDS011;697;51.114;6.542;2023-08-07T14:48:15;2.53;;;2.20;;
1404;SDS011;697;51.114;6.542;2023-08-07T14:50:42;3.33;;;2.10;;
1404;SDS011;697;51.114;6.542;2023-08-07T14:53:09;4.70;;;2.30;;
1404;SDS011;697;51.114;6.542;2023-08-07T14:55:35;4.30;;;1.93;;
1404;SDS011;697;51.114;6.542;2023-08-07T14:58:02;4.03;;;2.20;;
1404;SDS011;697;51.114;6.542;2023-08-07T15:00:30;4.33;;;1.73;;
1404;SDS011;697;51.114;6.542;2023-08-07T15:02:57;3.10;;;2.30;;
1404;SDS011;697;51.114;6.542;2023-08-07T15:05:23;1.97;;;1.87;;
1404;SDS011;697;51.114;6.542;2023-08-07T15:07:50;3.97;;;2.57;;
1404;SDS011;697;51.114;6.542;2023-08-07T15:10:17;6.20;;;2.40;;
1404;SDS011;697;51.114;6.542;2023-08-07T15:12:46;4.33;;;2.43;;
1404;SDS011;697;51.114;6.542;2023-08-07T15:15:13;3.03;;;1.70;;
1404;SDS011;697;51.114;6.542;2023-08-07T15:17:41;4.60;;;1.80;;
1404;SDS011;697;51.114;6.542;2023-08-07T15:20:08;3.43;;;2.00;;
1404;SDS011;697;51.114;6.542;2023-08-07T15:22:35;3.27;;;1.93;;
1404;SDS011;697;51.114;6.542;2023-08-07T15:25:02;3.53;;;1.70;;
1404;SDS011;697;51.114;6.542;2023-08-07T15:27:30;3.23;;;1.70;;